sensor_id;sensor_type;location;lat;lon;timestamp;P1;durP1;ratioP1;P2;durP2;ratioP2
12880;SDS011;6508;53.786;9.996;2023-08-01T00:01:02;1.98;;;1.88;;
12880;SDS011;6508;53.786;9.996;2023-08-01T00:03:31;1.70;;;1.60;;
12880;SDS011;6508;53.786;9.996;2023-08-01T00:06:00;1.70;;;1.60;;
12880;SDS011;6508;53.786;9.996;2023-08-01T00:08:28;1.50;;;1.40;;
12880;SDS011;6508;53.786;9.996;2023-08-01T00:10:55;2.00;;;1.67;;
12880;SDS011;6508;53.786;9.996;2023-08-01T00:13:24;2.25;;;1.55;;
12880;SDS011;6508;53.786;9.996;2023-08-01T00:15:51;1.50;;;1.40;;
12880;SDS011;6508;53.786;9.996;2023-08-01T00:18:32;2.22;;;1.40;;
12880;SDS011;6508;53.786;9.996;2023-08-01T00:21:01;1.55;;;1.45;;
12880;SDS011;6508;53.786;9.996;2023-08-01T00:23:29;2.40;;;1.30;;
12880;SDS011;6508;53.786;9.996;2023-08-01T00:25:56;2.08;;;1.50;;
12880;SDS011;6508;53.786;9.996;2023-08-01T00:28:24;1.80;;;1.70;;
12880;SDS011;6508;53.786;9.996;2023-08-01T00:31:00;1.63;;;1.52;;
12880;SDS011;6508;53.786;9.996;2023-08-01T00:33:28;2.88;;;1.73;;
12880;SDS011;6508;53.786;9.996;2023-08-01T00:35:56;2.08;;;1.98;;
12880;SDS011;6508;53.786;9.996;2023-08-01T00:38:25;4.05;;;2.90;;
12880;SDS011;6508;53.786;9.996;2023-08-01T00:40:53;2.55;;;2.35;;
12880;SDS011;6508;53.786;9.996;2023-08-01T00:43:21;3.05;;;2.78;;
12880;SDS011;6508;53.786;9.996;2023-08-01T00:45:48;3.38;;;2.95;;
12880;SDS011;6508;53.786;9.996;2023-08-01T00:48:16;2.90;;;2.60;;
12880;SDS011;6508;53.786;9.996;2023-08-01T00:50:45;2.85;;;2.65;;
12880;SDS011;6508;53.786;9.996;2023-08-01T00:53:13;3.08;;;2.88;;
12880;SDS011;6508;53.786;9.996;2023-08-01T00:55:42;2.80;;;2.40;;
12880;SDS011;6508;53.786;9.996;2023-08-01T00:58:10;3.03;;;2.75;;
12880;SDS011;6508;53.786;9.996;2023-08-01T01:00:38;2.65;;;2.45;;
12880;SDS011;6508;53.786;9.996;2023-08-01T01:03:06;2.63;;;1.90;;
12880;SDS011;6508;53.786;9.996;2023-08-01T01:05:35;2.83;;;2.63;;
12880;SDS011;6508;53.786;9.996;2023-08-01T01:08:03;2.97;;;2.72;;
12880;SDS011;6508;53.786;9.996;2023-08-01T01:10:32;3.65;;;2.38;;
12880;SDS011;6508;53.786;9.996;2023-08-01T01:13:01;2.40;;;2.30;;
12880;SDS011;6508;53.786;9.996;2023-08-01T01:15:28;2.70;;;2.50;;
12880;SDS011;6508;53.786;9.996;2023-08-01T01:17:56;3.42;;;2.50;;
12880;SDS011;6508;53.786;9.996;2023-08-01T01:20:25;3.08;;;2.40;;
12880;SDS011;6508;53.786;9.996;2023-08-01T01:22:54;2.35;;;2.22;;
12880;SDS011;6508;53.786;9.996;2023-08-01T01:25:22;2.35;;;2.15;;
12880;SDS011;6508;53.786;9.996;2023-08-01T01:27:51;2.00;;;1.90;;
12880;SDS011;6508;53.786;9.996;2023-08-01T01:30:20;3.08;;;2.20;;
12880;SDS011;6508;53.786;9.996;2023-08-01T01:32:48;2.78;;;2.58;;
12880;SDS011;6508;53.786;9.996;2023-08-01T01:35:15;2.10;;;2.00;;
12880;SDS011;6508;53.786;9.996;2023-08-01T01:37:44;2.35;;;2.20;;
12880;SDS011;6508;53.786;9.996;2023-08-01T01:40:12;2.53;;;2.33;;
12880;SDS011;6508;53.786;9.996;2023-08-01T01:42:41;3.78;;;2.38;;
12880;SDS011;6508;53.786;9.996;2023-08-01T01:45:09;2.65;;;2.42;;
12880;SDS011;6508;53.786;9.996;2023-08-01T01:47:36;2.42;;;2.33;;
12880;SDS011;6508;53.786;9.996;2023-08-01T01:50:04;2.50;;;2.30;;
12880;SDS011;6508;53.786;9.996;2023-08-01T01:52:32;2.55;;;2.35;;
12880;SDS011;6508;53.786;9.996;2023-08-01T01:55:01;2.78;;;2.47;;
12880;SDS011;6508;53.786;9.996;2023-08-01T01:57:30;3.53;;;2.67;;
12880;SDS011;6508;53.786;9.996;2023-08-01T01:59:58;2.95;;;2.38;;
12880;SDS011;6508;53.786;9.996;2023-08-01T02:02:26;4.07;;;3.08;;
12880;SDS011;6508;53.786;9.996;2023-08-01T02:04:53;2.80;;;2.60;;
12880;SDS011;6508;53.786;9.996;2023-08-01T02:07:21;3.38;;;3.17;;
12880;SDS011;6508;53.786;9.996;2023-08-01T02:09:49;3.90;;;3.50;;
12880;SDS011;6508;53.786;9.996;2023-08-01T02:12:17;5.03;;;4.10;;
12880;SDS011;6508;53.786;9.996;2023-08-01T02:14:46;5.18;;;4.60;;
12880;SDS011;6508;53.786;9.996;2023-08-01T02:34:26;9.13;;;5.95;;
12880;SDS011;6508;53.786;9.996;2023-08-01T02:36:54;9.02;;;6.93;;
12880;SDS011;6508;53.786;9.996;2023-08-01T02:39:22;13.55;;;7.38;;
12880;SDS011;6508;53.786;9.996;2023-08-01T02:41:49;11.00;;;7.68;;
12880;SDS011;6508;53.786;9.996;2023-08-01T02:44:17;13.30;;;8.65;;
12880;SDS011;6508;53.786;9.996;2023-08-01T02:46:45;14.98;;;8.68;;
12880;SDS011;6508;53.786;9.996;2023-08-01T02:49:13;14.10;;;8.60;;
12880;SDS011;6508;53.786;9.996;2023-08-01T02:51:42;14.68;;;8.32;;
12880;SDS011;6508;53.786;9.996;2023-08-01T02:54:10;16.77;;;9.18;;
12880;SDS011;6508;53.786;9.996;2023-08-01T02:56:38;15.18;;;10.35;;
12880;SDS011;6508;53.786;9.996;2023-08-01T02:59:08;15.00;;;9.70;;
12880;SDS011;6508;53.786;9.996;2023-08-01T03:01:37;15.82;;;10.15;;
12880;SDS011;6508;53.786;9.996;2023-08-01T03:04:05;16.85;;;10.68;;
12880;SDS011;6508;53.786;9.996;2023-08-01T03:06:34;20.48;;;11.13;;
12880;SDS011;6508;53.786;9.996;2023-08-01T03:09:03;20.40;;;11.38;;
12880;SDS011;6508;53.786;9.996;2023-08-01T03:11:35;19.77;;;12.25;;
12880;SDS011;6508;53.786;9.996;2023-08-01T03:14:02;20.27;;;11.85;;
12880;SDS011;6508;53.786;9.996;2023-08-01T03:16:31;19.45;;;11.02;;
12880;SDS011;6508;53.786;9.996;2023-08-01T03:18:59;20.75;;;11.70;;
12880;SDS011;6508;53.786;9.996;2023-08-01T03:21:31;22.30;;;12.73;;
12880;SDS011;6508;53.786;9.996;2023-08-01T03:23:59;21.73;;;12.48;;
12880;SDS011;6508;53.786;9.996;2023-08-01T03:26:28;25.52;;;13.32;;
12880;SDS011;6508;53.786;9.996;2023-08-01T03:28:56;19.55;;;12.65;;
12880;SDS011;6508;53.786;9.996;2023-08-01T03:31:24;22.67;;;13.45;;
12880;SDS011;6508;53.786;9.996;2023-08-01T03:33:52;25.25;;;14.27;;
12880;SDS011;6508;53.786;9.996;2023-08-01T03:36:20;25.77;;;13.98;;
12880;SDS011;6508;53.786;9.996;2023-08-01T03:38:48;21.98;;;13.38;;
12880;SDS011;6508;53.786;9.996;2023-08-01T03:41:15;23.70;;;13.93;;
12880;SDS011;6508;53.786;9.996;2023-08-01T03:43:45;27.60;;;15.45;;
12880;SDS011;6508;53.786;9.996;2023-08-01T03:46:12;26.48;;;14.73;;
12880;SDS011;6508;53.786;9.996;2023-08-01T03:48:40;27.38;;;15.02;;
12880;SDS011;6508;53.786;9.996;2023-08-01T03:51:09;25.17;;;14.52;;
12880;SDS011;6508;53.786;9.996;2023-08-01T03:53:37;26.42;;;14.30;;
12880;SDS011;6508;53.786;9.996;2023-08-01T03:56:05;26.08;;;14.77;;
12880;SDS011;6508;53.786;9.996;2023-08-01T03:58:34;25.70;;;14.93;;
12880;SDS011;6508;53.786;9.996;2023-08-01T04:01:03;28.25;;;16.20;;
12880;SDS011;6508;53.786;9.996;2023-08-01T04:03:32;31.63;;;16.10;;
12880;SDS011;6508;53.786;9.996;2023-08-01T04:06:00;28.35;;;16.13;;
12880;SDS011;6508;53.786;9.996;2023-08-01T04:08:28;27.10;;;15.40;;
12880;SDS011;6508;53.786;9.996;2023-08-01T04:10:56;28.30;;;15.07;;
12880;SDS011;6508;53.786;9.996;2023-08-01T04:13:24;26.10;;;15.65;;
12880;SDS011;6508;53.786;9.996;2023-08-01T04:15:51;24.83;;;14.70;;
12880;SDS011;6508;53.786;9.996;2023-08-01T04:18:20;26.85;;;14.77;;
12880;SDS011;6508;53.786;9.996;2023-08-01T04:20:48;28.52;;;15.98;;
12880;SDS011;6508;53.786;9.996;2023-08-01T04:23:16;27.88;;;15.40;;
12880;SDS011;6508;53.786;9.996;2023-08-01T04:25:44;28.40;;;15.98;;
12880;SDS011;6508;53.786;9.996;2023-08-01T04:28:12;30.13;;;16.63;;
12880;SDS011;6508;53.786;9.996;2023-08-01T04:30:40;24.73;;;15.90;;
12880;SDS011;6508;53.786;9.996;2023-08-01T04:33:08;31.33;;;16.35;;
12880;SDS011;6508;53.786;9.996;2023-08-01T04:35:37;27.55;;;16.40;;
12880;SDS011;6508;53.786;9.996;2023-08-01T04:38:05;30.00;;;15.68;;
12880;SDS011;6508;53.786;9.996;2023-08-01T04:40:33;28.00;;;15.88;;
12880;SDS011;6508;53.786;9.996;2023-08-01T04:43:00;30.63;;;16.45;;
12880;SDS011;6508;53.786;9.996;2023-08-01T04:45:28;28.63;;;16.10;;
12880;SDS011;6508;53.786;9.996;2023-08-01T04:47:56;28.30;;;16.23;;
12880;SDS011;6508;53.786;9.996;2023-08-01T04:50:24;28.27;;;16.95;;
12880;SDS011;6508;53.786;9.996;2023-08-01T04:52:53;28.65;;;16.80;;
12880;SDS011;6508;53.786;9.996;2023-08-01T04:55:20;29.92;;;16.58;;
12880;SDS011;6508;53.786;9.996;2023-08-01T04:57:48;27.70;;;16.90;;
12880;SDS011;6508;53.786;9.996;2023-08-01T05:00:16;26.42;;;15.23;;
12880;SDS011;6508;53.786;9.996;2023-08-01T05:02:44;26.73;;;16.05;;
12880;SDS011;6508;53.786;9.996;2023-08-01T05:05:12;26.65;;;15.70;;
12880;SDS011;6508;53.786;9.996;2023-08-01T05:07:40;30.02;;;15.95;;
12880;SDS011;6508;53.786;9.996;2023-08-01T05:10:09;26.20;;;15.07;;
12880;SDS011;6508;53.786;9.996;2023-08-01T05:12:37;25.77;;;15.35;;
12880;SDS011;6508;53.786;9.996;2023-08-01T05:15:05;23.33;;;14.68;;
12880;SDS011;6508;53.786;9.996;2023-08-01T05:17:33;28.25;;;14.60;;
12880;SDS011;6508;53.786;9.996;2023-08-01T05:20:01;27.38;;;16.25;;
12880;SDS011;6508;53.786;9.996;2023-08-01T05:22:30;21.23;;;14.55;;
12880;SDS011;6508;53.786;9.996;2023-08-01T05:24:58;23.55;;;14.15;;
12880;SDS011;6508;53.786;9.996;2023-08-01T05:27:27;22.50;;;13.68;;
12880;SDS011;6508;53.786;9.996;2023-08-01T05:29:55;25.77;;;14.57;;
12880;SDS011;6508;53.786;9.996;2023-08-01T05:32:22;21.80;;;13.73;;
12880;SDS011;6508;53.786;9.996;2023-08-01T05:34:50;27.33;;;14.70;;
12880;SDS011;6508;53.786;9.996;2023-08-01T05:37:19;24.38;;;14.35;;
12880;SDS011;6508;53.786;9.996;2023-08-01T05:39:47;26.33;;;14.50;;
12880;SDS011;6508;53.786;9.996;2023-08-01T05:42:15;22.02;;;14.88;;
12880;SDS011;6508;53.786;9.996;2023-08-01T05:44:44;22.33;;;13.45;;
12880;SDS011;6508;53.786;9.996;2023-08-01T05:47:11;23.92;;;14.48;;
12880;SDS011;6508;53.786;9.996;2023-08-01T05:49:39;23.42;;;13.18;;
12880;SDS011;6508;53.786;9.996;2023-08-01T05:52:08;22.23;;;14.13;;
12880;SDS011;6508;53.786;9.996;2023-08-01T05:54:35;22.70;;;13.02;;
12880;SDS011;6508;53.786;9.996;2023-08-01T05:57:04;22.17;;;12.93;;
12880;SDS011;6508;53.786;9.996;2023-08-01T05:59:32;21.73;;;13.40;;
12880;SDS011;6508;53.786;9.996;2023-08-01T06:02:01;19.40;;;12.60;;
12880;SDS011;6508;53.786;9.996;2023-08-01T06:04:29;17.58;;;12.00;;
12880;SDS011;6508;53.786;9.996;2023-08-01T06:06:57;19.60;;;11.48;;
12880;SDS011;6508;53.786;9.996;2023-08-01T06:09:25;17.50;;;11.63;;
12880;SDS011;6508;53.786;9.996;2023-08-01T06:11:53;16.58;;;11.68;;
12880;SDS011;6508;53.786;9.996;2023-08-01T06:14:23;19.27;;;11.80;;
12880;SDS011;6508;53.786;9.996;2023-08-01T06:16:51;18.30;;;10.93;;
12880;SDS011;6508;53.786;9.996;2023-08-01T06:19:20;18.88;;;11.57;;
12880;SDS011;6508;53.786;9.996;2023-08-01T06:21:48;16.90;;;11.32;;
12880;SDS011;6508;53.786;9.996;2023-08-01T06:24:15;19.48;;;11.05;;
12880;SDS011;6508;53.786;9.996;2023-08-01T06:26:43;16.42;;;10.38;;
12880;SDS011;6508;53.786;9.996;2023-08-01T06:29:11;17.77;;;10.77;;
12880;SDS011;6508;53.786;9.996;2023-08-01T06:31:39;18.20;;;10.77;;
12880;SDS011;6508;53.786;9.996;2023-08-01T06:34:07;15.60;;;10.02;;
12880;SDS011;6508;53.786;9.996;2023-08-01T06:36:36;16.75;;;9.65;;
12880;SDS011;6508;53.786;9.996;2023-08-01T06:39:04;12.73;;;8.57;;
12880;SDS011;6508;53.786;9.996;2023-08-01T06:41:32;9.45;;;8.23;;
12880;SDS011;6508;53.786;9.996;2023-08-01T06:44:00;8.38;;;7.55;;
12880;SDS011;6508;53.786;9.996;2023-08-01T06:46:28;10.07;;;7.50;;
12880;SDS011;6508;53.786;9.996;2023-08-01T06:48:56;13.55;;;8.60;;
12880;SDS011;6508;53.786;9.996;2023-08-01T06:51:24;9.50;;;7.68;;
12880;SDS011;6508;53.786;9.996;2023-08-01T06:53:53;9.43;;;7.85;;
12880;SDS011;6508;53.786;9.996;2023-08-01T06:56:20;15.73;;;7.88;;
12880;SDS011;6508;53.786;9.996;2023-08-01T06:58:49;7.78;;;6.65;;
12880;SDS011;6508;53.786;9.996;2023-08-01T07:01:16;7.85;;;6.75;;
12880;SDS011;6508;53.786;9.996;2023-08-01T07:03:44;10.68;;;6.72;;
12880;SDS011;6508;53.786;9.996;2023-08-01T07:06:12;10.05;;;6.70;;
12880;SDS011;6508;53.786;9.996;2023-08-01T07:08:40;10.38;;;6.93;;
12880;SDS011;6508;53.786;9.996;2023-08-01T07:11:09;12.80;;;6.63;;
12880;SDS011;6508;53.786;9.996;2023-08-01T07:13:37;8.40;;;5.43;;
12880;SDS011;6508;53.786;9.996;2023-08-01T07:16:05;9.95;;;6.03;;
12880;SDS011;6508;53.786;9.996;2023-08-01T07:18:33;5.50;;;4.97;;
12880;SDS011;6508;53.786;9.996;2023-08-01T07:21:01;6.90;;;5.38;;
12880;SDS011;6508;53.786;9.996;2023-08-01T07:23:28;6.88;;;5.47;;
12880;SDS011;6508;53.786;9.996;2023-08-01T07:25:56;9.40;;;5.07;;
12880;SDS011;6508;53.786;9.996;2023-08-01T07:28:25;5.22;;;4.72;;
12880;SDS011;6508;53.786;9.996;2023-08-01T07:31:00;6.30;;;4.80;;
12880;SDS011;6508;53.786;9.996;2023-08-01T07:33:28;5.60;;;4.85;;
12880;SDS011;6508;53.786;9.996;2023-08-01T07:35:56;6.07;;;4.78;;
12880;SDS011;6508;53.786;9.996;2023-08-01T07:38:23;8.25;;;5.10;;
12880;SDS011;6508;53.786;9.996;2023-08-01T07:40:51;6.78;;;5.22;;
12880;SDS011;6508;53.786;9.996;2023-08-01T07:43:19;9.05;;;5.50;;
12880;SDS011;6508;53.786;9.996;2023-08-01T07:45:48;5.38;;;4.97;;
12880;SDS011;6508;53.786;9.996;2023-08-01T07:48:17;5.07;;;4.45;;
12880;SDS011;6508;53.786;9.996;2023-08-01T07:50:44;7.75;;;5.28;;
12880;SDS011;6508;53.786;9.996;2023-08-01T07:53:12;7.05;;;4.55;;
12880;SDS011;6508;53.786;9.996;2023-08-01T07:55:40;5.15;;;4.65;;
12880;SDS011;6508;53.786;9.996;2023-08-01T07:58:08;5.70;;;4.38;;
12880;SDS011;6508;53.786;9.996;2023-08-01T08:00:36;6.65;;;4.03;;
12880;SDS011;6508;53.786;9.996;2023-08-01T08:03:05;4.82;;;4.43;;
12880;SDS011;6508;53.786;9.996;2023-08-01T08:05:35;4.80;;;4.10;;
12880;SDS011;6508;53.786;9.996;2023-08-01T08:08:04;6.85;;;5.00;;
12880;SDS011;6508;53.786;9.996;2023-08-01T08:10:32;5.05;;;3.97;;
12880;SDS011;6508;53.786;9.996;2023-08-01T08:13:00;4.28;;;3.85;;
12880;SDS011;6508;53.786;9.996;2023-08-01T08:15:27;3.97;;;3.67;;
12880;SDS011;6508;53.786;9.996;2023-08-01T08:17:59;5.93;;;4.00;;
12880;SDS011;6508;53.786;9.996;2023-08-01T08:20:34;5.97;;;4.35;;
12880;SDS011;6508;53.786;9.996;2023-08-01T08:23:07;5.47;;;4.22;;
12880;SDS011;6508;53.786;9.996;2023-08-01T08:25:35;6.13;;;4.90;;
12880;SDS011;6508;53.786;9.996;2023-08-01T08:28:03;5.55;;;4.28;;
12880;SDS011;6508;53.786;9.996;2023-08-01T08:30:31;5.47;;;4.65;;
12880;SDS011;6508;53.786;9.996;2023-08-01T08:32:59;4.50;;;4.10;;
12880;SDS011;6508;53.786;9.996;2023-08-01T08:35:32;4.72;;;4.32;;
12880;SDS011;6508;53.786;9.996;2023-08-01T08:38:01;5.53;;;5.03;;
12880;SDS011;6508;53.786;9.996;2023-08-01T08:40:29;5.57;;;5.15;;
12880;SDS011;6508;53.786;9.996;2023-08-01T08:42:56;5.88;;;5.47;;
12880;SDS011;6508;53.786;9.996;2023-08-01T08:45:27;6.40;;;5.60;;
12880;SDS011;6508;53.786;9.996;2023-08-01T08:47:57;6.13;;;5.65;;
12880;SDS011;6508;53.786;9.996;2023-08-01T08:50:25;5.10;;;4.88;;
12880;SDS011;6508;53.786;9.996;2023-08-01T08:52:57;5.75;;;5.25;;
12880;SDS011;6508;53.786;9.996;2023-08-01T08:55:25;6.55;;;6.07;;
12880;SDS011;6508;53.786;9.996;2023-08-01T08:57:53;6.32;;;5.93;;
12880;SDS011;6508;53.786;9.996;2023-08-01T09:00:21;6.43;;;5.93;;
12880;SDS011;6508;53.786;9.996;2023-08-01T09:02:49;6.68;;;6.18;;
12880;SDS011;6508;53.786;9.996;2023-08-01T09:05:17;8.18;;;7.15;;
12880;SDS011;6508;53.786;9.996;2023-08-01T09:07:45;7.00;;;6.40;;
12880;SDS011;6508;53.786;9.996;2023-08-01T09:10:16;4.55;;;4.25;;
12880;SDS011;6508;53.786;9.996;2023-08-01T09:12:44;3.72;;;3.42;;
12880;SDS011;6508;53.786;9.996;2023-08-01T09:15:12;2.95;;;2.75;;
12880;SDS011;6508;53.786;9.996;2023-08-01T09:17:47;3.60;;;2.72;;
12880;SDS011;6508;53.786;9.996;2023-08-01T09:20:15;3.70;;;3.25;;
12880;SDS011;6508;53.786;9.996;2023-08-01T09:22:43;3.45;;;3.08;;
12880;SDS011;6508;53.786;9.996;2023-08-01T09:25:11;6.60;;;3.90;;
12880;SDS011;6508;53.786;9.996;2023-08-01T09:27:40;3.50;;;2.75;;
12880;SDS011;6508;53.786;9.996;2023-08-01T09:30:09;3.55;;;2.90;;
12880;SDS011;6508;53.786;9.996;2023-08-01T09:32:37;3.53;;;3.15;;
12880;SDS011;6508;53.786;9.996;2023-08-01T09:35:05;2.92;;;2.70;;
12880;SDS011;6508;53.786;9.996;2023-08-01T09:37:39;3.53;;;3.22;;
12880;SDS011;6508;53.786;9.996;2023-08-01T09:40:07;3.13;;;2.92;;
12880;SDS011;6508;53.786;9.996;2023-08-01T09:42:41;4.82;;;3.47;;
12880;SDS011;6508;53.786;9.996;2023-08-01T09:45:12;3.45;;;3.17;;
12880;SDS011;6508;53.786;9.996;2023-08-01T09:47:41;4.03;;;3.72;;
12880;SDS011;6508;53.786;9.996;2023-08-01T09:50:11;3.72;;;3.47;;
12880;SDS011;6508;53.786;9.996;2023-08-01T09:52:39;9.02;;;3.78;;
12880;SDS011;6508;53.786;9.996;2023-08-01T09:55:07;3.92;;;3.63;;
12880;SDS011;6508;53.786;9.996;2023-08-01T09:57:35;4.53;;;3.55;;
12880;SDS011;6508;53.786;9.996;2023-08-01T10:00:07;6.70;;;3.80;;
12880;SDS011;6508;53.786;9.996;2023-08-01T10:02:38;4.10;;;3.80;;
12880;SDS011;6508;53.786;9.996;2023-08-01T10:05:08;4.50;;;3.65;;
12880;SDS011;6508;53.786;9.996;2023-08-01T10:07:37;4.20;;;4.00;;
12880;SDS011;6508;53.786;9.996;2023-08-01T10:10:06;5.15;;;4.75;;
12880;SDS011;6508;53.786;9.996;2023-08-01T10:12:34;4.22;;;3.95;;
12880;SDS011;6508;53.786;9.996;2023-08-01T10:15:03;4.68;;;4.20;;
12880;SDS011;6508;53.786;9.996;2023-08-01T10:17:32;4.40;;;4.00;;
12880;SDS011;6508;53.786;9.996;2023-08-01T10:20:01;3.58;;;3.28;;
12880;SDS011;6508;53.786;9.996;2023-08-01T10:22:30;4.70;;;4.40;;
12880;SDS011;6508;53.786;9.996;2023-08-01T10:24:59;4.75;;;4.30;;
12880;SDS011;6508;53.786;9.996;2023-08-01T10:27:27;3.88;;;3.58;;
12880;SDS011;6508;53.786;9.996;2023-08-01T10:29:58;3.65;;;3.13;;
12880;SDS011;6508;53.786;9.996;2023-08-01T10:32:36;4.28;;;3.97;;
12880;SDS011;6508;53.786;9.996;2023-08-01T10:35:04;5.65;;;5.25;;
12880;SDS011;6508;53.786;9.996;2023-08-01T10:37:39;4.70;;;4.25;;
12880;SDS011;6508;53.786;9.996;2023-08-01T10:40:08;4.50;;;4.20;;
12880;SDS011;6508;53.786;9.996;2023-08-01T10:42:38;4.57;;;4.43;;
12880;SDS011;6508;53.786;9.996;2023-08-01T10:45:06;5.22;;;4.90;;
12880;SDS011;6508;53.786;9.996;2023-08-01T10:47:35;4.50;;;4.30;;
12880;SDS011;6508;53.786;9.996;2023-08-01T10:50:12;4.43;;;4.22;;
12880;SDS011;6508;53.786;9.996;2023-08-01T10:52:40;5.07;;;4.88;;
12880;SDS011;6508;53.786;9.996;2023-08-01T10:55:08;6.18;;;5.97;;
12880;SDS011;6508;53.786;9.996;2023-08-01T10:57:37;5.10;;;4.90;;
12880;SDS011;6508;53.786;9.996;2023-08-01T11:00:06;5.20;;;4.90;;
12880;SDS011;6508;53.786;9.996;2023-08-01T11:02:37;4.50;;;4.32;;
12880;SDS011;6508;53.786;9.996;2023-08-01T11:05:06;3.20;;;3.00;;
12880;SDS011;6508;53.786;9.996;2023-08-01T11:07:34;2.30;;;2.20;;
12880;SDS011;6508;53.786;9.996;2023-08-01T11:10:05;2.10;;;2.00;;
12880;SDS011;6508;53.786;9.996;2023-08-01T11:12:34;2.83;;;1.48;;
12880;SDS011;6508;53.786;9.996;2023-08-01T11:15:02;1.52;;;1.42;;
12880;SDS011;6508;53.786;9.996;2023-08-01T11:17:30;2.00;;;1.40;;
12880;SDS011;6508;53.786;9.996;2023-08-01T11:20:04;1.67;;;1.63;;
12880;SDS011;6508;53.786;9.996;2023-08-01T11:22:33;1.40;;;1.40;;
12880;SDS011;6508;53.786;9.996;2023-08-01T11:25:01;1.80;;;1.70;;
12880;SDS011;6508;53.786;9.996;2023-08-01T11:27:29;1.48;;;1.48;;
12880;SDS011;6508;53.786;9.996;2023-08-01T11:29:57;2.22;;;1.50;;
12880;SDS011;6508;53.786;9.996;2023-08-01T11:32:32;1.60;;;1.30;;
12880;SDS011;6508;53.786;9.996;2023-08-01T11:35:00;2.78;;;1.48;;
12880;SDS011;6508;53.786;9.996;2023-08-01T11:37:30;1.40;;;1.30;;
12880;SDS011;6508;53.786;9.996;2023-08-01T11:39:58;1.40;;;1.27;;
12880;SDS011;6508;53.786;9.996;2023-08-01T11:42:30;1.25;;;1.00;;
12880;SDS011;6508;53.786;9.996;2023-08-01T11:45:07;1.42;;;1.00;;
12880;SDS011;6508;53.786;9.996;2023-08-01T11:47:34;1.42;;;0.80;;
12880;SDS011;6508;53.786;9.996;2023-08-01T11:50:02;1.58;;;0.80;;
12880;SDS011;6508;53.786;9.996;2023-08-01T11:52:32;0.77;;;0.75;;
12880;SDS011;6508;53.786;9.996;2023-08-01T11:55:00;0.77;;;0.60;;
12880;SDS011;6508;53.786;9.996;2023-08-01T11:57:27;2.05;;;0.60;;
12880;SDS011;6508;53.786;9.996;2023-08-01T11:59:56;0.57;;;0.57;;
12880;SDS011;6508;53.786;9.996;2023-08-01T12:02:24;37.78;;;2.50;;
12880;SDS011;6508;53.786;9.996;2023-08-01T12:04:53;0.60;;;0.60;;
12880;SDS011;6508;53.786;9.996;2023-08-01T12:07:20;2.25;;;0.80;;
12880;SDS011;6508;53.786;9.996;2023-08-01T12:09:56;0.60;;;0.60;;
12880;SDS011;6508;53.786;9.996;2023-08-01T12:12:25;1.33;;;1.00;;
12880;SDS011;6508;53.786;9.996;2023-08-01T12:14:54;0.70;;;0.70;;
12880;SDS011;6508;53.786;9.996;2023-08-01T12:17:22;5.10;;;1.45;;
12880;SDS011;6508;53.786;9.996;2023-08-01T12:19:50;1.95;;;1.50;;
12880;SDS011;6508;53.786;9.996;2023-08-01T12:22:18;1.70;;;1.70;;
12880;SDS011;6508;53.786;9.996;2023-08-01T12:24:46;2.75;;;2.65;;
12880;SDS011;6508;53.786;9.996;2023-08-01T12:27:15;2.65;;;2.63;;
12880;SDS011;6508;53.786;9.996;2023-08-01T12:29:43;2.60;;;2.50;;
12880;SDS011;6508;53.786;9.996;2023-08-01T12:32:11;3.10;;;3.00;;
12880;SDS011;6508;53.786;9.996;2023-08-01T12:34:39;2.28;;;2.17;;
12880;SDS011;6508;53.786;9.996;2023-08-01T12:37:07;3.15;;;3.05;;
12880;SDS011;6508;53.786;9.996;2023-08-01T12:39:34;3.10;;;3.00;;
12880;SDS011;6508;53.786;9.996;2023-08-01T12:42:02;3.33;;;3.22;;
12880;SDS011;6508;53.786;9.996;2023-08-01T12:44:31;4.18;;;4.07;;
12880;SDS011;6508;53.786;9.996;2023-08-01T12:46:59;4.60;;;4.40;;
12880;SDS011;6508;53.786;9.996;2023-08-01T12:49:27;4.63;;;4.53;;
12880;SDS011;6508;53.786;9.996;2023-08-01T12:51:55;5.05;;;4.75;;
12880;SDS011;6508;53.786;9.996;2023-08-01T12:54:24;4.00;;;3.90;;
12880;SDS011;6508;53.786;9.996;2023-08-01T12:56:52;3.15;;;3.05;;
12880;SDS011;6508;53.786;9.996;2023-08-01T12:59:20;2.70;;;2.50;;
12880;SDS011;6508;53.786;9.996;2023-08-01T13:01:49;2.42;;;2.33;;
12880;SDS011;6508;53.786;9.996;2023-08-01T13:04:16;2.15;;;2.05;;
12880;SDS011;6508;53.786;9.996;2023-08-01T13:06:44;2.10;;;2.00;;
12880;SDS011;6508;53.786;9.996;2023-08-01T13:09:12;1.30;;;1.27;;
12880;SDS011;6508;53.786;9.996;2023-08-01T13:11:43;1.52;;;1.52;;
12880;SDS011;6508;53.786;9.996;2023-08-01T13:14:11;1.67;;;1.48;;
12880;SDS011;6508;53.786;9.996;2023-08-01T13:16:39;1.90;;;1.80;;
12880;SDS011;6508;53.786;9.996;2023-08-01T13:19:09;1.60;;;1.50;;
12880;SDS011;6508;53.786;9.996;2023-08-01T13:21:36;1.40;;;1.40;;
12880;SDS011;6508;53.786;9.996;2023-08-01T13:24:04;1.85;;;1.50;;
12880;SDS011;6508;53.786;9.996;2023-08-01T13:26:32;1.70;;;1.60;;
12880;SDS011;6508;53.786;9.996;2023-08-01T13:29:00;1.50;;;1.50;;
12880;SDS011;6508;53.786;9.996;2023-08-01T13:31:27;1.58;;;1.48;;
12880;SDS011;6508;53.786;9.996;2023-08-01T13:33:56;1.33;;;1.33;;
12880;SDS011;6508;53.786;9.996;2023-08-01T13:36:25;1.48;;;1.38;;
12880;SDS011;6508;53.786;9.996;2023-08-01T13:38:53;1.10;;;1.10;;
12880;SDS011;6508;53.786;9.996;2023-08-01T13:41:21;1.08;;;1.08;;
12880;SDS011;6508;53.786;9.996;2023-08-01T13:43:49;1.20;;;1.10;;
12880;SDS011;6508;53.786;9.996;2023-08-01T13:46:17;1.40;;;1.30;;
12880;SDS011;6508;53.786;9.996;2023-08-01T13:49:06;1.70;;;1.70;;
12880;SDS011;6508;53.786;9.996;2023-08-01T13:51:35;2.38;;;2.28;;
12880;SDS011;6508;53.786;9.996;2023-08-01T13:54:03;2.35;;;2.20;;
12880;SDS011;6508;53.786;9.996;2023-08-01T13:56:30;2.20;;;2.10;;
12880;SDS011;6508;53.786;9.996;2023-08-01T13:58:58;1.83;;;1.83;;
12880;SDS011;6508;53.786;9.996;2023-08-01T14:01:26;1.60;;;1.50;;
12880;SDS011;6508;53.786;9.996;2023-08-01T14:03:54;1.25;;;1.25;;
12880;SDS011;6508;53.786;9.996;2023-08-01T14:06:22;1.98;;;1.70;;
12880;SDS011;6508;53.786;9.996;2023-08-01T14:08:51;1.27;;;1.20;;
12880;SDS011;6508;53.786;9.996;2023-08-01T14:11:20;1.55;;;1.45;;
12880;SDS011;6508;53.786;9.996;2023-08-01T14:13:48;1.50;;;1.30;;
12880;SDS011;6508;53.786;9.996;2023-08-01T14:16:16;1.55;;;1.35;;
12880;SDS011;6508;53.786;9.996;2023-08-01T14:18:43;1.63;;;1.52;;
12880;SDS011;6508;53.786;9.996;2023-08-01T14:21:11;1.60;;;1.50;;
12880;SDS011;6508;53.786;9.996;2023-08-01T14:23:39;2.92;;;1.60;;
12880;SDS011;6508;53.786;9.996;2023-08-01T14:26:09;1.30;;;1.30;;
12880;SDS011;6508;53.786;9.996;2023-08-01T14:28:37;1.40;;;1.30;;
12880;SDS011;6508;53.786;9.996;2023-08-01T14:31:04;2.63;;;1.75;;
12880;SDS011;6508;53.786;9.996;2023-08-01T14:33:33;1.17;;;1.10;;
12880;SDS011;6508;53.786;9.996;2023-08-01T14:36:01;0.90;;;0.90;;
12880;SDS011;6508;53.786;9.996;2023-08-01T14:38:29;1.15;;;1.05;;
12880;SDS011;6508;53.786;9.996;2023-08-01T14:40:56;1.08;;;0.95;;
12880;SDS011;6508;53.786;9.996;2023-08-01T14:43:28;1.05;;;0.90;;
12880;SDS011;6508;53.786;9.996;2023-08-01T14:45:57;3.00;;;1.02;;
12880;SDS011;6508;53.786;9.996;2023-08-01T14:48:24;1.08;;;1.08;;
12880;SDS011;6508;53.786;9.996;2023-08-01T14:50:53;1.50;;;1.50;;
12880;SDS011;6508;53.786;9.996;2023-08-01T14:53:20;1.63;;;1.27;;
12880;SDS011;6508;53.786;9.996;2023-08-01T14:55:55;1.45;;;1.38;;
12880;SDS011;6508;53.786;9.996;2023-08-01T14:58:23;1.45;;;1.35;;
12880;SDS011;6508;53.786;9.996;2023-08-01T15:00:52;1.00;;;1.00;;
12880;SDS011;6508;53.786;9.996;2023-08-01T15:03:19;1.85;;;1.30;;
12880;SDS011;6508;53.786;9.996;2023-08-01T15:05:47;2.15;;;1.00;;
12880;SDS011;6508;53.786;9.996;2023-08-01T15:08:15;0.90;;;0.90;;
12880;SDS011;6508;53.786;9.996;2023-08-01T15:10:43;1.10;;;1.10;;
12880;SDS011;6508;53.786;9.996;2023-08-01T15:13:10;1.63;;;1.15;;
12880;SDS011;6508;53.786;9.996;2023-08-01T15:15:39;1.75;;;1.40;;
12880;SDS011;6508;53.786;9.996;2023-08-01T15:18:08;2.13;;;1.92;;